sensor_id;sensor_type;location;lat;lon;timestamp;pressure;altitude;pressure_sealevel;temperature;humidity
52319;BME280;38258;51.148;14.068;2023-05-01T00:01:05;98695.69;;;0.92;100.00
52319;BME280;38258;51.148;14.068;2023-05-01T00:03:32;98706.84;;;0.93;100.00
52319;BME280;38258;51.148;14.068;2023-05-01T00:05:59;98521.69;;;-0.07;100.00
52319;BME280;38258;51.148;14.068;2023-05-01T00:08:26;98469.97;;;-0.26;100.00
52319;BME280;38258;51.148;14.068;2023-05-01T00:10:54;98608.28;;;0.45;100.00
52319;BME280;38258;51.148;14.068;2023-05-01T00:13:21;98533.69;;;-0.06;100.00
52319;BME280;38258;51.148;14.068;2023-05-01T00:15:50;98566.72;;;0.21;100.00
52319;BME280;38258;51.148;14.068;2023-05-01T00:18:18;98622.31;;;0.65;100.00
52319;BME280;38258;51.148;14.068;2023-05-01T00:20:47;98582.53;;;0.46;100.00
52319;BME280;38258;51.148;14.068;2023-05-01T00:23:14;98567.94;;;0.45;100.00
52319;BME280;38258;51.148;14.068;2023-05-01T00:25:41;98491.59;;;-0.13;100.00
52319;BME280;38258;51.148;14.068;2023-05-01T00:28:09;98672.69;;;1.06;100.00
52319;BME280;38258;51.148;14.068;2023-05-01T00:30:36;98688.16;;;1.71;100.00
52319;BME280;38258;51.148;14.068;2023-05-01T00:33:02;98612.81;;;1.23;100.00
52319;BME280;38258;51.148;14.068;2023-05-01T00:35:29;98566.44;;;1.23;100.00
52319;BME280;38258;51.148;14.068;2023-05-01T00:37:56;98600.44;;;1.66;100.00
52319;BME280;38258;51.148;14.068;2023-05-01T00:40:23;98670.97;;;1.72;100.00
52319;BME280;38258;51.148;14.068;2023-05-01T00:42:49;98707.13;;;1.76;100.00
52319;BME280;38258;51.148;14.068;2023-05-01T00:45:21;98546.75;;;0.63;100.00
52319;BME280;38258;51.148;14.068;2023-05-01T00:47:47;98624.47;;;0.96;100.00
52319;BME280;38258;51.148;14.068;2023-05-01T00:50:16;98569.06;;;0.63;100.00
52319;BME280;38258;51.148;14.068;2023-05-01T00:52:45;98663.03;;;0.93;100.00
52319;BME280;38258;51.148;14.068;2023-05-01T00:55:15;98715.78;;;1.17;100.00
52319;BME280;38258;51.148;14.068;2023-05-01T00:57:43;98655.38;;;0.96;100.00
52319;BME280;38258;51.148;14.068;2023-05-01T01:00:11;98603.28;;;0.57;100.00
52319;BME280;38258;51.148;14.068;2023-05-01T01:02:39;98705.59;;;1.23;100.00
52319;BME280;38258;51.148;14.068;2023-05-01T01:05:06;98654.47;;;0.92;100.00
52319;BME280;38258;51.148;14.068;2023-05-01T01:07:39;98659.88;;;1.11;100.00
52319;BME280;38258;51.148;14.068;2023-05-01T01:10:15;98628.31;;;1.26;100.00
52319;BME280;38258;51.148;14.068;2023-05-01T01:12:53;98610.00;;;1.78;100.00
52319;BME280;38258;51.148;14.068;2023-05-01T01:15:28;98586.53;;;1.52;100.00
52319;BME280;38258;51.148;14.068;2023-05-01T01:18:07;98630.34;;;1.52;100.00
52319;BME280;38258;51.148;14.068;2023-05-01T01:20:37;98582.91;;;2.24;100.00
52319;BME280;38258;51.148;14.068;2023-05-01T01:23:32;98476.56;;;1.54;100.00
52319;BME280;38258;51.148;14.068;2023-05-01T01:26:10;98532.75;;;1.91;100.00
52319;BME280;38258;51.148;14.068;2023-05-01T01:29:01;98523.28;;;1.87;100.00
52319;BME280;38258;51.148;14.068;2023-05-01T01:31:31;98498.78;;;1.43;100.00
52319;BME280;38258;51.148;14.068;2023-05-01T01:34:07;98673.72;;;2.80;100.00
52319;BME280;38258;51.148;14.068;2023-05-01T01:36:48;98388.72;;;1.34;100.00
52319;BME280;38258;51.148;14.068;2023-05-01T01:39:24;98463.38;;;1.23;100.00
52319;BME280;38258;51.148;14.068;2023-05-01T01:41:53;98501.19;;;1.27;100.00
52319;BME280;38258;51.148;14.068;2023-05-01T01:44:29;98411.16;;;0.61;100.00
52319;BME280;38258;51.148;14.068;2023-05-01T01:47:04;98576.09;;;1.43;100.00
52319;BME280;38258;51.148;14.068;2023-05-01T01:49:36;98526.81;;;1.15;100.00
52319;BME280;38258;51.148;14.068;2023-05-01T01:52:04;98551.91;;;1.30;100.00
52319;BME280;38258;51.148;14.068;2023-05-01T01:54:36;98569.91;;;1.28;100.00
52319;BME280;38258;51.148;14.068;2023-05-01T01:57:06;98658.28;;;1.90;100.00
52319;BME280;38258;51.148;14.068;2023-05-01T01:59:34;98561.41;;;1.35;100.00
52319;BME280;38258;51.148;14.068;2023-05-01T02:02:02;98471.34;;;0.69;100.00
52319;BME280;38258;51.148;14.068;2023-05-01T02:04:31;98471.34;;;0.69;100.00
52319;BME280;38258;51.148;14.068;2023-05-01T02:07:02;98511.69;;;0.72;100.00
52319;BME280;38258;51.148;14.068;2023-05-01T02:09:29;98349.44;;;-0.04;100.00
52319;BME280;38258;51.148;14.068;2023-05-01T02:11:57;98651.06;;;1.61;100.00
52319;BME280;38258;51.148;14.068;2023-05-01T02:14:26;98499.34;;;0.46;100.00
52319;BME280;38258;51.148;14.068;2023-05-01T02:16:54;98535.16;;;0.32;100.00
52319;BME280;38258;51.148;14.068;2023-05-01T02:19:21;98666.66;;;1.03;100.00
52319;BME280;38258;51.148;14.068;2023-05-01T02:21:52;98504.94;;;0.17;100.00
52319;BME280;38258;51.148;14.068;2023-05-01T02:24:23;98548.38;;;0.56;100.00
52319;BME280;38258;51.148;14.068;2023-05-01T02:26:53;98479.06;;;0.07;100.00
52319;BME280;38258;51.148;14.068;2023-05-01T02:29:23;98592.28;;;0.67;100.00
52319;BME280;38258;51.148;14.068;2023-05-01T02:31:52;98510.84;;;0.11;100.00
52319;BME280;38258;51.148;14.068;2023-05-01T02:34:19;98652.56;;;0.79;100.00
52319;BME280;38258;51.148;14.068;2023-05-01T02:36:46;98456.09;;;-0.36;100.00
52319;BME280;38258;51.148;14.068;2023-05-01T02:39:16;98574.41;;;0.20;100.00
52319;BME280;38258;51.148;14.068;2023-05-01T02:41:45;98634.06;;;0.49;100.00
52319;BME280;38258;51.148;14.068;2023-05-01T02:44:14;98618.41;;;0.35;100.00
52319;BME280;38258;51.148;14.068;2023-05-01T02:46:46;98627.13;;;0.45;100.00
52319;BME280;38258;51.148;14.068;2023-05-01T02:49:21;98538.97;;;0.02;100.00
52319;BME280;38258;51.148;14.068;2023-05-01T02:51:49;98406.69;;;-0.72;100.00
52319;BME280;38258;51.148;14.068;2023-05-01T02:54:16;98479.38;;;-0.26;100.00
52319;BME280;38258;51.148;14.068;2023-05-01T02:56:45;98493.25;;;-0.17;100.00
52319;BME280;38258;51.148;14.068;2023-05-01T02:59:12;98388.31;;;-0.93;100.00
52319;BME280;38258;51.148;14.068;2023-05-01T03:01:38;98617.31;;;0.75;100.00
52319;BME280;38258;51.148;14.068;2023-05-01T03:04:05;98462.34;;;-0.21;100.00
52319;BME280;38258;51.148;14.068;2023-05-01T03:06:34;98505.44;;;-0.05;100.00
52319;BME280;38258;51.148;14.068;2023-05-01T03:09:07;98376.53;;;-0.82;100.00
52319;BME280;38258;51.148;14.068;2023-05-01T03:11:36;98554.44;;;0.05;100.00
52319;BME280;38258;51.148;14.068;2023-05-01T03:14:04;98526.03;;;-0.52;100.00
52319;BME280;38258;51.148;14.068;2023-05-01T03:16:34;98538.34;;;-0.36;100.00
52319;BME280;38258;51.148;14.068;2023-05-01T03:19:01;98347.16;;;-1.46;100.00
52319;BME280;38258;51.148;14.068;2023-05-01T03:21:28;98498.34;;;-0.69;100.00
52319;BME280;38258;51.148;14.068;2023-05-01T03:23:56;98399.63;;;-1.31;100.00
52319;BME280;38258;51.148;14.068;2023-05-01T03:26:26;98563.94;;;-0.42;100.00
52319;BME280;38258;51.148;14.068;2023-05-01T03:28:56;98390.13;;;-1.35;100.00
52319;BME280;38258;51.148;14.068;2023-05-01T03:31:25;98521.69;;;-0.57;100.00
52319;BME280;38258;51.148;14.068;2023-05-01T03:33:53;98604.91;;;-0.02;100.00
52319;BME280;38258;51.148;14.068;2023-05-01T03:36:22;98393.69;;;-1.29;100.00
52319;BME280;38258;51.148;14.068;2023-05-01T03:38:49;98440.19;;;-1.11;100.00
52319;BME280;38258;51.148;14.068;2023-05-01T03:41:45;98472.41;;;-0.83;100.00
52319;BME280;38258;51.148;14.068;2023-05-01T03:44:20;98376.47;;;-1.33;100.00
52319;BME280;38258;51.148;14.068;2023-05-01T03:46:48;98426.78;;;-0.96;100.00
52319;BME280;38258;51.148;14.068;2023-05-01T03:49:20;98527.19;;;-0.36;100.00
52319;BME280;38258;51.148;14.068;2023-05-01T03:51:48;98518.59;;;-0.37;100.00
52319;BME280;38258;51.148;14.068;2023-05-01T03:54:14;98362.84;;;-1.30;100.00
52319;BME280;38258;51.148;14.068;2023-05-01T03:56:57;98506.38;;;-0.52;100.00
52319;BME280;38258;51.148;14.068;2023-05-01T03:59:28;98361.88;;;-1.37;100.00
52319;BME280;38258;51.148;14.068;2023-05-01T04:01:56;98580.28;;;0.11;100.00
52319;BME280;38258;51.148;14.068;2023-05-01T04:04:25;98391.28;;;-1.19;100.00
52319;BME280;38258;51.148;14.068;2023-05-01T04:06:55;98512.56;;;-0.40;100.00
52319;BME280;38258;51.148;14.068;2023-05-01T04:09:22;98492.81;;;-0.43;100.00
52319;BME280;38258;51.148;14.068;2023-05-01T04:11:49;98445.34;;;-0.64;100.00
52319;BME280;38258;51.148;14.068;2023-05-01T04:14:15;98554.66;;;0.16;100.00
52319;BME280;38258;51.148;14.068;2023-05-01T04:16:42;98377.97;;;-1.00;100.00
52319;BME280;38258;51.148;14.068;2023-05-01T04:19:10;98425.81;;;-0.54;100.00
52319;BME280;38258;51.148;14.068;2023-05-01T04:21:40;98566.25;;;0.47;100.00
52319;BME280;38258;51.148;14.068;2023-05-01T04:24:07;98500.00;;;0.32;100.00
52319;BME280;38258;51.148;14.068;2023-05-01T04:26:34;98457.97;;;0.30;100.00
52319;BME280;38258;51.148;14.068;2023-05-01T04:29:01;98421.00;;;0.25;100.00
52319;BME280;38258;51.148;14.068;2023-05-01T04:31:28;98502.34;;;0.80;100.00
52319;BME280;38258;51.148;14.068;2023-05-01T04:33:54;98498.31;;;0.99;100.00
52319;BME280;38258;51.148;14.068;2023-05-01T04:36:23;98391.06;;;0.30;100.00
52319;BME280;38258;51.148;14.068;2023-05-01T04:38:49;98452.66;;;0.89;100.00
52319;BME280;38258;51.148;14.068;2023-05-01T04:41:16;98464.03;;;1.05;100.00
52319;BME280;38258;51.148;14.068;2023-05-01T04:43:44;98555.97;;;1.91;100.00
52319;BME280;38258;51.148;14.068;2023-05-01T04:46:15;98534.47;;;1.89;100.00
52319;BME280;38258;51.148;14.068;2023-05-01T04:48:41;98500.94;;;1.89;100.00
52319;BME280;38258;51.148;14.068;2023-05-01T04:51:08;98416.34;;;1.49;100.00
52319;BME280;38258;51.148;14.068;2023-05-01T04:53:36;98353.41;;;1.23;100.00
52319;BME280;38258;51.148;14.068;2023-05-01T04:56:13;98497.75;;;2.24;100.00
52319;BME280;38258;51.148;14.068;2023-05-01T04:58:40;98412.53;;;2.19;100.00
52319;BME280;38258;51.148;14.068;2023-05-01T05:01:11;98355.84;;;2.43;100.00
52319;BME280;38258;51.148;14.068;2023-05-01T05:03:38;98353.41;;;2.81;100.00
52319;BME280;38258;51.148;14.068;2023-05-01T05:06:09;98372.41;;;3.05;100.00
52319;BME280;38258;51.148;14.068;2023-05-01T05:08:37;98358.63;;;3.30;100.00
52319;BME280;38258;51.148;14.068;2023-05-01T05:11:25;98398.28;;;3.72;100.00
52319;BME280;38258;51.148;14.068;2023-05-01T05:14:09;98429.28;;;4.34;100.00
52319;BME280;38258;51.148;14.068;2023-05-01T05:16:36;98495.59;;;4.80;100.00
52319;BME280;38258;51.148;14.068;2023-05-01T05:19:03;98546.91;;;5.92;100.00
52319;BME280;38258;51.148;14.068;2023-05-01T05:21:35;98477.13;;;5.54;100.00
52319;BME280;38258;51.148;14.068;2023-05-01T05:24:04;98477.03;;;5.64;100.00
52319;BME280;38258;51.148;14.068;2023-05-01T05:26:31;98430.53;;;5.40;100.00
52319;BME280;38258;51.148;14.068;2023-05-01T05:29:02;98471.56;;;6.00;100.00
52319;BME280;38258;51.148;14.068;2023-05-01T05:31:29;98386.22;;;5.64;100.00
52319;BME280;38258;51.148;14.068;2023-05-01T05:33:56;98369.00;;;5.51;100.00
52319;BME280;38258;51.148;14.068;2023-05-01T05:36:22;98359.38;;;5.67;100.00
52319;BME280;38258;51.148;14.068;2023-05-01T05:38:52;98482.41;;;6.49;100.00
52319;BME280;38258;51.148;14.068;2023-05-01T05:41:20;98422.91;;;6.22;100.00
52319;BME280;38258;51.148;14.068;2023-05-01T05:43:50;98462.63;;;6.35;100.00
52319;BME280;38258;51.148;14.068;2023-05-01T05:46:20;98428.97;;;6.23;100.00
52319;BME280;38258;51.148;14.068;2023-05-01T05:48:47;98468.50;;;6.55;100.00
52319;BME280;38258;51.148;14.068;2023-05-01T05:51:14;98471.03;;;6.61;100.00
52319;BME280;38258;51.148;14.068;2023-05-01T05:53:43;98477.16;;;6.57;100.00
52319;BME280;38258;51.148;14.068;2023-05-01T05:56:10;98483.09;;;6.68;100.00
52319;BME280;38258;51.148;14.068;2023-05-01T05:58:38;98409.75;;;6.41;100.00
52319;BME280;38258;51.148;14.068;2023-05-01T06:01:06;98462.91;;;6.90;100.00
52319;BME280;38258;51.148;14.068;2023-05-01T06:03:37;98470.50;;;7.04;100.00
52319;BME280;38258;51.148;14.068;2023-05-01T06:06:04;98417.72;;;6.99;100.00
52319;BME280;38258;51.148;14.068;2023-05-01T06:08:31;98479.41;;;7.52;100.00
52319;BME280;38258;51.148;14.068;2023-05-01T06:10:59;98479.28;;;7.60;100.00
52319;BME280;38258;51.148;14.068;2023-05-01T06:13:26;98341.16;;;7.17;100.00
52319;BME280;38258;51.148;14.068;2023-05-01T06:15:58;98446.19;;;7.70;100.00
52319;BME280;38258;51.148;14.068;2023-05-01T06:18:25;98365.94;;;7.40;100.00
52319;BME280;38258;51.148;14.068;2023-05-01T06:20:54;98346.91;;;7.36;100.00
52319;BME280;38258;51.148;14.068;2023-05-01T06:23:21;98449.81;;;8.14;100.00
52319;BME280;38258;51.148;14.068;2023-05-01T06:26:04;98380.09;;;7.77;100.00
52319;BME280;38258;51.148;14.068;2023-05-01T06:28:32;98534.78;;;8.73;100.00
52319;BME280;38258;51.148;14.068;2023-05-01T06:31:01;98465.84;;;8.41;96.09
52319;BME280;38258;51.148;14.068;2023-05-01T06:33:33;98416.13;;;8.03;98.96
52319;BME280;38258;51.148;14.068;2023-05-01T06:36:11;98414.56;;;7.91;91.33
52319;BME280;38258;51.148;14.068;2023-05-01T06:38:38;98401.19;;;8.12;100.00
52319;BME280;38258;51.148;14.068;2023-05-01T06:41:06;98472.13;;;8.76;96.47
52319;BME280;38258;51.148;14.068;2023-05-01T06:43:33;98470.34;;;8.79;100.00
52319;BME280;38258;51.148;14.068;2023-05-01T06:46:01;98363.53;;;8.30;91.17
52319;BME280;38258;51.148;14.068;2023-05-01T06:48:28;98471.25;;;9.20;87.72
52319;BME280;38258;51.148;14.068;2023-05-01T06:50:55;98386.25;;;8.67;86.68
52319;BME280;38258;51.148;14.068;2023-05-01T06:53:21;98469.44;;;9.24;93.16
52319;BME280;38258;51.148;14.068;2023-05-01T06:55:48;98338.13;;;8.40;84.06
52319;BME280;38258;51.148;14.068;2023-05-01T06:58:15;98417.25;;;8.83;88.04
52319;BME280;38258;51.148;14.068;2023-05-01T07:00:41;98448.50;;;9.25;88.35
52319;BME280;38258;51.148;14.068;2023-05-01T07:03:09;98389.22;;;8.93;82.58
52319;BME280;38258;51.148;14.068;2023-05-01T07:05:36;98457.97;;;9.31;78.06
52319;BME280;38258;51.148;14.068;2023-05-01T07:08:04;98336.41;;;8.83;85.35
52319;BME280;38258;51.148;14.068;2023-05-01T07:10:31;98406.19;;;9.12;78.87
52319;BME280;38258;51.148;14.068;2023-05-01T07:12:58;98366.13;;;9.15;81.47
52319;BME280;38258;51.148;14.068;2023-05-01T07:15:25;98378.34;;;9.51;81.48
52319;BME280;38258;51.148;14.068;2023-05-01T07:17:51;98502.59;;;10.33;84.79
52319;BME280;38258;51.148;14.068;2023-05-01T07:20:24;98432.75;;;10.04;86.71
52319;BME280;38258;51.148;14.068;2023-05-01T07:22:51;98358.88;;;9.64;79.78
52319;BME280;38258;51.148;14.068;2023-05-01T07:25:22;98507.84;;;10.32;74.51
52319;BME280;38258;51.148;14.068;2023-05-01T07:27:51;98437.44;;;10.26;83.32
52319;BME280;38258;51.148;14.068;2023-05-01T07:30:23;98372.06;;;9.93;72.47
52319;BME280;38258;51.148;14.068;2023-05-01T07:32:50;98331.34;;;9.85;71.99
52319;BME280;38258;51.148;14.068;2023-05-01T07:35:19;98405.16;;;10.60;76.48
52319;BME280;38258;51.148;14.068;2023-05-01T07:37:48;98386.59;;;10.69;79.63
52319;BME280;38258;51.148;14.068;2023-05-01T07:40:16;98281.94;;;10.41;74.33
52319;BME280;38258;51.148;14.068;2023-05-01T07:42:42;98413.63;;;11.00;68.21
52319;BME280;38258;51.148;14.068;2023-05-01T07:45:10;98344.72;;;10.99;69.67
52319;BME280;38258;51.148;14.068;2023-05-01T07:47:37;98303.91;;;10.94;62.51
52319;BME280;38258;51.148;14.068;2023-05-01T07:50:18;98410.22;;;11.26;67.62
52319;BME280;38258;51.148;14.068;2023-05-01T07:52:50;98413.19;;;11.71;70.00
52319;BME280;38258;51.148;14.068;2023-05-01T07:55:22;98320.09;;;11.60;61.87
52319;BME280;38258;51.148;14.068;2023-05-01T07:57:51;98454.88;;;12.58;58.83
52319;BME280;38258;51.148;14.068;2023-05-01T08:00:18;98309.00;;;11.52;62.19
52319;BME280;38258;51.148;14.068;2023-05-01T08:02:51;98312.44;;;11.27;59.60
52319;BME280;38258;51.148;14.068;2023-05-01T08:05:24;98410.09;;;12.37;64.89
52319;BME280;38258;51.148;14.068;2023-05-01T08:08:07;98405.38;;;12.23;67.32
52319;BME280;38258;51.148;14.068;2023-05-01T08:10:36;98337.56;;;11.60;60.59
52319;BME280;38258;51.148;14.068;2023-05-01T08:13:04;98403.38;;;11.78;62.66
52319;BME280;38258;51.148;14.068;2023-05-01T08:15:31;98319.78;;;10.57;60.50
52319;BME280;38258;51.148;14.068;2023-05-01T08:17:58;98362.75;;;11.09;63.19
52319;BME280;38258;51.148;14.068;2023-05-01T08:20:25;98287.31;;;10.93;60.16
52319;BME280;38258;51.148;14.068;2023-05-01T08:22:55;98295.47;;;11.39;61.35
52319;BME280;38258;51.148;14.068;2023-05-01T08:25:24;98317.25;;;11.40;65.97
52319;BME280;38258;51.148;14.068;2023-05-01T08:27:51;98293.88;;;11.35;60.63
52319;BME280;38258;51.148;14.068;2023-05-01T08:30:20;98363.59;;;11.92;56.31
52319;BME280;38258;51.148;14.068;2023-05-01T08:32:47;98343.97;;;12.29;57.27
52319;BME280;38258;51.148;14.068;2023-05-01T08:35:16;98402.75;;;13.41;54.63
52319;BME280;38258;51.148;14.068;2023-05-01T08:37:45;98377.97;;;13.70;55.41
52319;BME280;38258;51.148;14.068;2023-05-01T08:40:14;98345.97;;;13.16;57.65
52319;BME280;38258;51.148;14.068;2023-05-01T08:42:42;98357.22;;;13.42;52.70
52319;BME280;38258;51.148;14.068;2023-05-01T08:45:09;98393.88;;;12.99;54.77
52319;BME280;38258;51.148;14.068;2023-05-01T08:47:38;98427.56;;;13.57;55.21
52319;BME280;38258;51.148;14.068;2023-05-01T08:50:08;98339.13;;;13.12;52.79
52319;BME280;38258;51.148;14.068;2023-05-01T08:52:39;98430.84;;;13.63;52.03
52319;BME280;38258;51.148;14.068;2023-05-01T08:55:12;98304.50;;;13.02;52.07
52319;BME280;38258;51.148;14.068;2023-05-01T08:58:00;98447.19;;;14.14;51.75
52319;BME280;38258;51.148;14.068;2023-05-01T09:00:30;98331.56;;;13.49;53.39
52319;BME280;38258;51.148;14.068;2023-05-01T09:03:00;98326.66;;;14.03;54.91
52319;BME280;38258;51.148;14.068;2023-05-01T09:05:27;98458.75;;;14.93;52.51
52319;BME280;38258;51.148;14.068;2023-05-01T09:07:54;98306.38;;;13.65;54.79
52319;BME280;38258;51.148;14.068;2023-05-01T09:10:21;98356.38;;;13.84;55.18
52319;BME280;38258;51.148;14.068;2023-05-01T09:12:54;98409.44;;;13.94;53.41
52319;BME280;38258;51.148;14.068;2023-05-01T09:15:31;98300.16;;;13.46;51.96
52319;BME280;38258;51.148;14.068;2023-05-01T09:17:59;98371.78;;;14.14;49.83
52319;BME280;38258;51.148;14.068;2023-05-01T09:20:26;98370.06;;;14.13;50.53
52319;BME280;38258;51.148;14.068;2023-05-01T09:22:54;98363.66;;;14.80;54.64
52319;BME280;38258;51.148;14.068;2023-05-01T09:25:22;98305.16;;;14.14;52.99
52319;BME280;38258;51.148;14.068;2023-05-01T09:27:49;98398.97;;;15.14;54.69
52319;BME280;38258;51.148;14.068;2023-05-01T09:30:30;98396.91;;;15.21;51.72
52319;BME280;38258;51.148;14.068;2023-05-01T09:33:06;98347.84;;;14.99;49.70
52319;BME280;38258;51.148;14.068;2023-05-01T09:35:47;98300.22;;;15.04;50.51
52319;BME280;38258;51.148;14.068;2023-05-01T09:38:16;98378.72;;;15.34;45.81
52319;BME280;38258;51.148;14.068;2023-05-01T09:40:44;98320.19;;;15.27;48.21
52319;BME280;38258;51.148;14.068;2023-05-01T09:43:13;98302.78;;;15.77;44.56
52319;BME280;38258;51.148;14.068;2023-05-01T09:45:58;98311.56;;;14.27;50.90
52319;BME280;38258;51.148;14.068;2023-05-01T09:48:25;98350.00;;;15.27;53.44
52319;BME280;38258;51.148;14.068;2023-05-01T09:50:53;98412.91;;;15.72;50.69
52319;BME280;38258;51.148;14.068;2023-05-01T09:53:32;98287.09;;;15.39;48.53
52319;BME280;38258;51.148;14.068;2023-05-01T09:56:06;98338.88;;;16.28;49.33
52319;BME280;38258;51.148;14.068;2023-05-01T09:58:34;98266.91;;;16.08;47.07
52319;BME280;38258;51.148;14.068;2023-05-01T10:01:02;98341.16;;;16.18;49.94
52319;BME280;38258;51.148;14.068;2023-05-01T10:03:29;98252.13;;;15.71;52.48
52319;BME280;38258;51.148;14.068;2023-05-01T10:05:56;98394.72;;;16.72;50.68
52319;BME280;38258;51.148;14.068;2023-05-01T10:08:25;98238.50;;;15.27;46.80
52319;BME280;38258;51.148;14.068;2023-05-01T10:11:08;98348.94;;;16.04;48.39
52319;BME280;38258;51.148;14.068;2023-05-01T10:14:06;98321.25;;;16.94;46.25
52319;BME280;38258;51.148;14.068;2023-05-01T10:16:36;98244.91;;;16.25;47.29
52319;BME280;38258;51.148;14.068;2023-05-01T10:19:03;98340.75;;;16.26;53.85
52319;BME280;38258;51.148;14.068;2023-05-01T10:21:31;98318.78;;;16.59;45.16
52319;BME280;38258;51.148;14.068;2023-05-01T10:23:59;98369.97;;;17.38;47.62
52319;BME280;38258;51.148;14.068;2023-05-01T10:26:27;98277.03;;;16.82;44.39
52319;BME280;38258;51.148;14.068;2023-05-01T10:28:54;98208.03;;;15.04;48.11
52319;BME280;38258;51.148;14.068;2023-05-01T10:31:23;98200.69;;;15.97;48.53
52319;BME280;38258;51.148;14.068;2023-05-01T10:33:53;98346.75;;;18.05;46.83
52319;BME280;38258;51.148;14.068;2023-05-01T10:36:22;98338.56;;;18.24;44.12
52319;BME280;38258;51.148;14.068;2023-05-01T10:38:51;98332.31;;;18.40;45.29
52319;BME280;38258;51.148;14.068;2023-05-01T10:44:31;98265.88;;;16.45;49.20
52319;BME280;38258;51.148;14.068;2023-05-01T10:46:59;98336.97;;;17.14;45.04
52319;BME280;38258;51.148;14.068;2023-05-01T10:50:01;98331.94;;;17.25;43.86
52319;BME280;38258;51.148;14.068;2023-05-01T10:52:29;98325.72;;;17.57;42.40
52319;BME280;38258;51.148;14.068;2023-05-01T10:57:56;98310.34;;;17.33;46.40
52319;BME280;38258;51.148;14.068;2023-05-01T11:00:24;98311.41;;;18.20;43.92
52319;BME280;38258;51.148;14.068;2023-05-01T11:02:51;98306.41;;;17.40;41.27
52319;BME280;38258;51.148;14.068;2023-05-01T11:05:17;98310.31;;;17.49;44.37
52319;BME280;38258;51.148;14.068;2023-05-01T11:07:44;98310.47;;;17.15;42.52
52319;BME280;38258;51.148;14.068;2023-05-01T11:10:24;98303.56;;;17.13;44.28
52319;BME280;38258;51.148;14.068;2023-05-01T11:12:51;98297.69;;;17.54;43.76
52319;BME280;38258;51.148;14.068;2023-05-01T11:15:27;98275.72;;;17.83;42.68
52319;BME280;38258;51.148;14.068;2023-05-01T11:17:54;98299.16;;;17.44;43.37
52319;BME280;38258;51.148;14.068;2023-05-01T11:20:46;98283.28;;;17.44;42.17
52319;BME280;38258;51.148;14.068;2023-05-01T11:23:17;98284.41;;;18.86;43.89
52319;BME280;38258;51.148;14.068;2023-05-01T11:25:46;98283.25;;;17.13;46.73
52319;BME280;38258;51.148;14.068;2023-05-01T11:28:17;98281.66;;;17.41;41.42
52319;BME280;38258;51.148;14.068;2023-05-01T11:30:46;98277.34;;;17.85;40.69
52319;BME280;38258;51.148;14.068;2023-05-01T11:33:13;98266.78;;;17.55;39.10
52319;BME280;38258;51.148;14.068;2023-05-01T11:35:55;98262.50;;;17.37;41.41
52319;BME280;38258;51.148;14.068;2023-05-01T11:38:22;98256.41;;;17.51;39.77
52319;BME280;38258;51.148;14.068;2023-05-01T11:40:53;98239.47;;;17.09;42.25
52319;BME280;38258;51.148;14.068;2023-05-01T11:43:22;98241.38;;;18.12;43.35
52319;BME280;38258;51.148;14.068;2023-05-01T11:45:52;98244.78;;;17.23;45.31
52319;BME280;38258;51.148;14.068;2023-05-01T11:48:21;98250.00;;;17.70;40.24
52319;BME280;38258;51.148;14.068;2023-05-01T11:50:49;98236.06;;;17.97;37.05
52319;BME280;38258;51.148;14.068;2023-05-01T11:53:16;98238.97;;;18.50;39.45
52319;BME280;38258;51.148;14.068;2023-05-01T11:55:43;98234.75;;;18.33;38.45
52319;BME280;38258;51.148;14.068;2023-05-01T11:58:11;98228.50;;;18.34;39.11
52319;BME280;38258;51.148;14.068;2023-05-01T12:00:39;98226.31;;;17.98;40.18
52319;BME280;38258;51.148;14.068;2023-05-01T12:03:08;98225.28;;;18.00;40.67
52319;BME280;38258;51.148;14.068;2023-05-01T12:05:38;98223.69;;;18.41;37.89
52319;BME280;38258;51.148;14.068;2023-05-01T12:08:11;98197.19;;;18.41;34.15
52319;BME280;38258;51.148;14.068;2023-05-01T12:10:40;98202.38;;;20.04;35.53
52319;BME280;38258;51.148;14.068;2023-05-01T12:13:09;98207.16;;;19.20;37.19
52319;BME280;38258;51.148;14.068;2023-05-01T12:15:39;98206.66;;;18.45;39.99
52319;BME280;38258;51.148;14.068;2023-05-01T12:18:08;98201.25;;;18.74;39.21
52319;BME280;38258;51.148;14.068;2023-05-01T12:20:36;98187.38;;;18.98;42.08
52319;BME280;38258;51.148;14.068;2023-05-01T12:23:04;98181.41;;;18.94;38.40
52319;BME280;38258;51.148;14.068;2023-05-01T12:25:32;98187.03;;;19.17;39.87
52319;BME280;38258;51.148;14.068;2023-05-01T12:28:01;98167.72;;;19.41;37.66
52319;BME280;38258;51.148;14.068;2023-05-01T12:30:28;98171.56;;;19.89;33.18
52319;BME280;38258;51.148;14.068;2023-05-01T12:32:56;98169.91;;;18.81;39.78
52319;BME280;38258;51.148;14.068;2023-05-01T12:35:29;98159.59;;;19.44;38.94
52319;BME280;38258;51.148;14.068;2023-05-01T12:37:57;98156.75;;;18.39;38.86
52319;BME280;38258;51.148;14.068;2023-05-01T12:40:25;98151.72;;;18.62;34.24
52319;BME280;38258;51.148;14.068;2023-05-01T12:42:54;98147.06;;;19.59;40.52
52319;BME280;38258;51.148;14.068;2023-05-01T12:45:22;98139.63;;;19.64;36.77
52319;BME280;38258;51.148;14.068;2023-05-01T12:47:49;98135.81;;;20.56;38.59
52319;BME280;38258;51.148;14.068;2023-05-01T12:50:17;98135.34;;;19.10;35.16
52319;BME280;38258;51.148;14.068;2023-05-01T12:52:46;98120.00;;;20.30;36.20
52319;BME280;38258;51.148;14.068;2023-05-01T12:55:13;98132.50;;;19.91;35.20
52319;BME280;38258;51.148;14.068;2023-05-01T12:57:51;98123.94;;;19.48;39.64
52319;BME280;38258;51.148;14.068;2023-05-01T13:00:18;98123.09;;;18.54;34.54
52319;BME280;38258;51.148;14.068;2023-05-01T13:02:46;98130.19;;;19.60;37.26
52319;BME280;38258;51.148;14.068;2023-05-01T13:05:13;98074.91;;;19.41;38.76
52319;BME280;38258;51.148;14.068;2023-05-01T13:07:48;98133.91;;;19.71;33.63
52319;BME280;38258;51.148;14.068;2023-05-01T13:10:28;98126.19;;;20.18;34.32